Terminal Aerodrome Forecast
Issued by NWS

Home | Current Version | Previous Version | Text Only | Print | Product List | Glossary On
Versions: 1 2 3 4 5 6 7 8 9 10 11 12 13 14 15 16 17 18 19 20 21 22 23 24 25
758
FTUS43 KPAH 141924 AAA
TAFCGI
TAF AMD
KCGI 141924Z 1419/1518 16004KT P6SM BKN015 OVC040
     FM150100 20004KT P6SM FEW020 SCT250
     FM150700 24001KT 4SM BR SCT015
     FM151300 20006KT P6SM SCT040=

USA.gov is the U.S. government's official web portal to all federal, state and local government web resources and services.